Time;durP1;ratioP1;P1;durP2;ratioP2;P2;SDS_P1;SDS_P2;PMS_P1;PMS_P2;Temp;Humidity;BMP_temperature;BMP_pressure;BME280_temperature;BME280_humidity;BME280_pressure;Samples;Min_cycle;Max_cycle;Signal;HPM_P1;HPM_P2
2021/06/26 00:00:06;;;;;;;20.30;17.10;;;;;;;16.46;69.26;100573.44;5017807;28;20062;-79
2021/06/26 00:02:34;;;;;;;19.90;17.10;;;;;;;16.44;69.36;100576.59;5018171;28;20501;-79
2021/06/26 00:05:02;;;;;;;19.40;17.27;;;;;;;16.37;69.47;100573.56;5018662;28;20054;-80
2021/06/26 00:07:29;;;;;;;21.00;17.63;;;;;;;16.32;69.57;100585.84;5017416;28;20503;-80
2021/06/26 00:09:56;;;;;;;18.88;16.63;;;;;;;16.30;69.71;100588.19;5017375;28;20487;-79
2021/06/26 00:12:24;;;;;;;21.08;17.10;;;;;;;16.31;69.67;100577.78;5017232;28;20426;-79
2021/06/26 00:14:51;;;;;;;21.08;18.88;;;;;;;16.32;69.73;100577.44;5017013;28;20403;-80
2021/06/26 00:17:20;;;;;;;22.13;17.92;;;;;;;16.24;70.10;100581.16;5020244;28;20061;-79
2021/06/26 00:19:49;;;;;;;20.73;18.63;;;;;;;16.23;70.13;100580.34;5020450;28;20045;-80
2021/06/26 00:22:17;;;;;;;25.50;19.70;;;;;;;16.21;70.42;100577.06;5020757;28;20054;-79
2021/06/26 00:24:47;;;;;;;24.10;20.30;;;;;;;16.12;70.65;100581.97;5019359;28;20130;-79
2021/06/26 00:27:14;;;;;;;23.88;20.05;;;;;;;16.14;70.65;100578.81;5019970;28;20057;-80
2021/06/26 00:29:42;;;;;;;23.17;18.63;;;;;;;16.11;70.70;100574.72;5019127;28;20049;-79
2021/06/26 00:32:09;;;;;;;22.35;18.48;;;;;;;16.12;70.79;100573.53;5018694;28;20056;-79
2021/06/26 00:34:37;;;;;;;24.10;18.38;;;;;;;16.13;70.62;100589.25;5018420;28;20498;-80
2021/06/26 00:37:06;;;;;;;23.50;19.17;;;;;;;16.09;70.63;100588.28;5018826;28;20054;-80
2021/06/26 00:39:33;;;;;;;21.35;18.17;;;;;;;16.05;70.75;100589.34;5020859;28;20068;-79
2021/06/26 00:42:03;;;;;;;25.08;18.75;;;;;;;16.02;71.07;100585.22;5022418;28;20054;-80
2021/06/26 00:44:30;;;;;;;23.90;20.00;;;;;;;16.01;71.16;100587.22;5022312;28;20057;-80
2021/06/26 00:46:57;;;;;;;25.63;21.17;;;;;;;15.99;71.18;100581.13;5022825;28;20053;-80
2021/06/26 00:49:25;;;;;;;24.85;19.80;;;;;;;15.98;71.00;100585.13;5022788;28;20506;-81
2021/06/26 00:51:52;;;;;;;26.88;21.35;;;;;;;16.00;71.20;100587.56;5022580;28;20403;-80
2021/06/26 00:54:21;;;;;;;26.42;21.48;;;;;;;15.97;71.58;100585.47;5020911;28;20054;-80
2021/06/26 00:56:49;;;;;;;22.60;19.38;;;;;;;15.95;71.67;100585.81;5021362;28;20058;-80
2021/06/26 00:59:16;;;;;;;23.70;19.67;;;;;;;15.95;71.60;100583.00;5022117;28;20054;-80
2021/06/26 01:01:43;;;;;;;35.50;20.33;;;;;;;15.98;71.18;100575.84;5018974;28;20053;-79
2021/06/26 01:04:11;;;;;;;21.98;19.15;;;;;;;15.94;70.98;100583.38;5018079;28;20053;-79
2021/06/26 01:06:38;;;;;;;24.85;18.80;;;;;;;15.89;71.32;100575.16;5017100;28;20046;-79
2021/06/26 01:09:06;;;;;;;21.52;18.55;;;;;;;15.87;71.03;100583.09;5015475;28;20046;-79
2021/06/26 01:11:35;;;;;;;22.50;18.65;;;;;;;15.87;70.91;100572.66;5017923;28;20048;-79
2021/06/26 01:14:03;;;;;;;26.23;19.20;;;;;;;15.85;71.12;100579.81;5018197;28;20054;-79
2021/06/26 01:16:31;;;;;;;21.95;18.45;;;;;;;15.82;70.92;100584.16;5018332;28;20384;-80
2021/06/26 01:18:58;;;;;;;22.83;19.20;;;;;;;15.80;71.06;100578.06;5018451;28;20060;-79
2021/06/26 01:21:25;;;;;;;21.63;18.98;;;;;;;15.76;71.47;100585.53;5018263;28;20058;-80
2021/06/26 01:23:55;;;;;;;24.35;20.10;;;;;;;15.75;71.51;100584.72;5017480;28;20053;-80
2021/06/26 01:26:28;;;;;;;22.98;20.20;;;;;;;15.72;71.43;100585.41;5017830;28;20061;-80
2021/06/26 01:28:57;;;;;;;24.15;20.10;;;;;;;15.69;71.40;100580.44;5018382;28;20053;-80
2021/06/26 01:31:27;;;;;;;24.10;20.17;;;;;;;15.71;71.42;100580.13;5018557;28;20058;-80
2021/06/26 01:33:54;;;;;;;;;;;;;;;15.63;71.69;100588.25;5018984;28;20053;-80
2021/06/26 01:36:21;;;;;;;25.33;19.95;;;;;;;15.66;71.68;100594.34;5018586;28;20383;-80
2021/06/26 01:38:58;;;;;;;25.10;19.95;;;;;;;15.66;71.73;100589.56;5017755;28;20050;-80
2021/06/26 01:41:31;;;;;;;23.25;19.05;;;;;;;15.65;72.10;100590.75;4998604;28;20059;-79
2021/06/26 01:43:58;;;;;;;22.83;19.17;;;;;;;15.63;71.72;100582.66;4999014;28;20379;-80
2021/06/26 01:46:25;;;;;;;22.58;18.45;;;;;;;15.66;71.61;100572.69;4998486;28;20050;-80
2021/06/26 01:48:53;;;;;;;21.75;18.63;;;;;;;15.67;71.49;100579.16;4998731;28;20086;-80
2021/06/26 01:51:20;;;;;;;22.38;19.00;;;;;;;15.66;71.82;100574.69;4998342;28;20055;-80
2021/06/26 01:53:47;;;;;;;23.50;19.27;;;;;;;15.65;71.72;100573.88;4998450;28;20057;-80
2021/06/26 01:56:16;;;;;;;20.80;18.45;;;;;;;15.66;71.02;100575.50;4998187;28;20053;-80
2021/06/26 01:58:46;;;;;;;21.42;19.05;;;;;;;15.53;71.46;100571.03;4997792;28;20529;-78
2021/06/26 02:01:14;;;;;;;26.40;20.75;;;;;;;15.57;71.43;100575.59;4997389;28;20392;-80
2021/06/26 02:03:41;;;;;;;26.65;20.40;;;;;;;15.57;71.49;100574.78;4998180;28;20066;-80
2021/06/26 02:06:09;;;;;;;24.13;19.63;;;;;;;15.49;71.79;100575.69;4998109;28;20054;-81
2021/06/26 02:08:37;;;;;;;23.80;19.30;;;;;;;15.50;71.39;100577.34;4998212;28;20050;-80
2021/06/26 02:11:04;;;;;;;25.63;19.42;;;;;;;15.48;71.19;100574.88;4997905;28;20054;-80
2021/06/26 02:13:33;;;;;;;23.20;19.30;;;;;;;15.49;70.93;100570.91;4997187;28;20464;-81
2021/06/26 02:16:00;;;;;;;25.13;20.40;;;;;;;15.42;70.98;100570.66;4998191;28;20074;-79
2021/06/26 02:18:27;;;;;;;24.08;19.50;;;;;;;15.38;71.44;100576.13;4997448;28;20492;-79
2021/06/26 02:20:55;;;;;;;23.67;19.35;;;;;;;15.32;71.76;100577.50;4997499;28;20065;-80
2021/06/26 02:23:30;;;;;;;31.95;20.48;;;;;;;15.30;72.00;100573.41;4997803;28;20062;-80
2021/06/26 02:25:58;;;;;;;25.80;21.33;;;;;;;15.27;72.01;100586.13;4998156;28;20062;-79
2021/06/26 02:28:25;;;;;;;27.40;22.00;;;;;;;15.31;71.77;100575.06;4997733;28;20050;-80
2021/06/26 02:30:56;;;;;;;27.15;20.38;;;;;;;15.29;71.98;100572.59;5000223;28;20054;-79
2021/06/26 02:33:24;;;;;;;26.58;20.95;;;;;;;15.28;71.85;100570.94;5017552;28;20053;-80
2021/06/26 02:35:51;;;;;;;30.75;22.30;;;;;;;15.26;72.01;100567.66;5016947;28;20050;-80
2021/06/26 02:38:19;;;;;;;30.13;21.77;;;;;;;15.24;71.88;100575.59;5012919;28;20058;-80
2021/06/26 02:40:49;;;;;;;27.02;23.17;;;;;;;15.24;71.84;100575.59;4994872;28;20058;-80
2021/06/26 02:43:18;;;;;;;31.02;23.83;;;;;;;15.22;72.33;100569.50;5001160;28;20061;-80
2021/06/26 02:45:48;;;;;;;;;;;;;;;15.18;72.26;100566.59;5001332;28;20054;-80
2021/06/26 02:48:17;;;;;;;28.00;21.90;;;;;;;15.18;72.16;100574.16;5001133;28;19921;-80
2021/06/26 02:50:45;;;;;;;26.85;20.88;;;;;;;15.19;71.85;100562.59;4999844;28;20065;-79
2021/06/26 02:53:12;;;;;;;28.42;20.73;;;;;;;15.19;71.91;100567.38;5002860;28;20423;-79
2021/06/26 02:55:39;;;;;;;27.83;20.88;;;;;;;15.16;71.84;100568.91;5020429;28;20060;-79
2021/06/26 02:58:07;;;;;;;24.63;20.33;;;;;;;15.16;71.53;100565.25;5019770;28;20057;-80
2021/06/26 03:00:34;;;;;;;26.50;21.30;;;;;;;15.13;72.08;100568.75;5019916;28;20133;-81
2021/06/26 03:03:04;;;;;;;27.95;21.63;;;;;;;15.14;71.95;100573.19;5016495;28;20058;-81
2021/06/26 03:05:33;;;;;;;29.60;22.77;;;;;;;15.12;71.88;100573.56;5016033;28;20054;-80
2021/06/26 03:08:00;;;;;;;29.35;22.90;;;;;;;15.14;72.08;100570.38;5016819;28;20403;-81
2021/06/26 03:10:28;;;;;;;26.60;22.33;;;;;;;15.14;72.21;100576.84;5016057;28;20050;-81
2021/06/26 03:12:55;;;;;;;29.80;21.98;;;;;;;15.13;71.86;100574.38;5016429;28;20395;-81
2021/06/26 03:15:23;;;;;;;30.00;23.45;;;;;;;15.09;71.76;100573.41;5016529;28;20050;-81
2021/06/26 03:17:50;;;;;;;26.98;22.40;;;;;;;15.02;71.80;100577.59;5016794;28;20080;-79
2021/06/26 03:20:18;;;;;;;27.25;22.98;;;;;;;15.00;72.02;100571.50;5017013;28;20403;-80
2021/06/26 03:22:46;;;;;;;28.67;22.70;;;;;;;15.04;72.23;100568.03;5016500;28;20057;-80
2021/06/26 03:25:14;;;;;;;31.10;22.10;;;;;;;15.00;72.39;100577.09;5016169;28;20512;-79
2021/06/26 03:27:42;;;;;;;31.77;24.05;;;;;;;15.02;72.32;100573.97;5015982;28;20050;-80
2021/06/26 03:30:11;;;;;;;30.95;22.23;;;;;;;15.01;72.12;100578.78;5016009;28;20061;-80
2021/06/26 03:32:38;;;;;;;32.45;23.95;;;;;;;15.00;71.74;100577.09;5017169;28;20360;-80
2021/06/26 03:35:07;;;;;;;32.72;23.48;;;;;;;15.00;71.93;100582.72;5017099;28;20054;-81
2021/06/26 03:37:34;;;;;;;30.15;23.30;;;;;;;14.97;71.85;100583.41;5016740;28;20478;-80
2021/06/26 03:40:03;;;;;;;30.42;22.45;;;;;;;15.02;71.75;100586.00;5017235;28;20057;-80
2021/06/26 03:42:30;;;;;;;29.37;22.13;;;;;;;15.05;71.72;100578.06;5017278;28;20173;-80
2021/06/26 03:44:57;;;;;;;32.80;23.17;;;;;;;15.07;71.43;100584.97;5015927;28;20050;-80
2021/06/26 03:47:26;;;;;;;32.35;23.45;;;;;;;15.10;71.33;100580.66;5016425;28;20786;-80
2021/06/26 03:49:53;;;;;;;28.33;22.77;;;;;;;15.09;71.86;100588.25;5019287;28;20057;-81
2021/06/26 03:52:20;;;;;;;33.25;23.52;;;;;;;15.12;71.40;100584.78;5020264;28;20050;-80
2021/06/26 03:54:47;;;;;;;31.38;22.30;;;;;;;15.18;71.33;100593.78;5019117;28;20049;-81
2021/06/26 03:57:16;;;;;;;30.98;22.23;;;;;;;15.21;71.27;100593.13;5019904;28;20050;-80
2021/06/26 03:59:44;;;;;;;28.83;21.90;;;;;;;15.23;71.44;100596.41;5019651;28;20050;-80
2021/06/26 04:02:11;;;;;;;28.58;22.98;;;;;;;15.28;71.49;100589.75;5019893;28;20061;-81
2021/06/26 04:04:39;;;;;;;29.77;23.58;;;;;;;15.32;71.25;100588.72;5020096;28;20069;-80
2021/06/26 04:07:06;;;;;;;27.80;22.70;;;;;;;15.41;71.40;100583.03;5019718;28;20045;-81
2021/06/26 04:09:34;;;;;;;30.05;24.13;;;;;;;15.46;71.50;100580.03;5020037;28;20072;-81
2021/06/26 04:12:01;;;;;;;30.88;24.48;;;;;;;15.49;71.57;100581.31;5011457;28;20046;-80
2021/06/26 04:14:30;;;;;;;34.53;26.25;;;;;;;15.56;70.97;100581.56;5000324;28;20057;-79
2021/06/26 04:16:58;;;;;;;31.48;24.70;;;;;;;15.61;71.18;100578.56;5000136;28;20061;-78
2021/06/26 04:19:25;;;;;;;30.67;24.65;;;;;;;15.66;70.99;100581.13;4999762;28;20061;-80
2021/06/26 04:21:55;;;;;;;32.95;23.73;;;;;;;15.70;70.97;100581.25;4999836;28;20051;-81
2021/06/26 04:24:23;;;;;;;31.15;23.77;;;;;;;15.73;71.08;100580.63;5009368;28;20058;-80
2021/06/26 04:26:50;;;;;;;30.17;23.83;;;;;;;15.80;70.89;100572.44;5020017;28;20068;-80
2021/06/26 04:29:18;;;;;;;30.50;22.90;;;;;;;15.86;70.63;100579.47;5019780;28;20068;-80
2021/06/26 04:31:47;;;;;;;32.30;23.38;;;;;;;15.87;70.62;100585.91;5019537;28;20061;-80
2021/06/26 04:34:15;;;;;;;28.48;23.23;;;;;;;15.94;70.43;100588.97;5019339;28;20054;-79
2021/06/26 04:36:42;;;;;;;28.20;22.80;;;;;;;16.01;70.25;100586.41;5018482;28;20458;-81
2021/06/26 04:39:10;;;;;;;31.55;23.55;;;;;;;16.10;70.12;100594.72;5018084;28;20050;-80
2021/06/26 04:41:38;;;;;;;27.02;22.95;;;;;;;16.19;69.65;100584.19;5018638;28;20479;-80
2021/06/26 04:44:06;;;;;;;25.10;19.90;;;;;;;16.30;69.10;100584.56;5018259;28;20076;-80
2021/06/26 04:46:34;;;;;;;25.90;20.00;;;;;;;16.37;68.66;100587.59;5019058;28;20060;-80
2021/06/26 04:49:03;;;;;;;27.70;19.60;;;;;;;16.43;68.16;100594.66;5019395;28;20054;-80
2021/06/26 04:51:32;;;;;;;25.55;19.60;;;;;;;16.47;67.95;100587.16;5019462;28;20056;-79
2021/06/26 04:54:00;;;;;;;23.00;19.73;;;;;;;16.55;67.70;100586.22;5018534;28;20387;-80
2021/06/26 04:56:27;;;;;;;24.23;19.75;;;;;;;16.62;68.02;100594.88;5018503;28;20061;-80
2021/06/26 04:58:56;;;;;;;25.08;19.55;;;;;;;16.70;67.35;100589.47;5018384;28;20108;-81
2021/06/26 05:01:24;;;;;;;24.52;18.95;;;;;;;16.77;67.00;100595.31;5018048;28;20065;-81
2021/06/26 05:03:51;;;;;;;25.70;19.75;;;;;;;16.80;66.98;100600.25;5017756;28;20061;-81
2021/06/26 05:06:20;;;;;;;24.83;19.45;;;;;;;16.90;66.74;100599.78;5018418;28;20076;-81
2021/06/26 05:08:47;;;;;;;23.80;19.20;;;;;;;16.92;66.83;100599.44;5017921;28;20046;-80
2021/06/26 05:11:14;;;;;;;28.98;19.73;;;;;;;17.00;66.55;100604.09;5018100;28;20477;-80
2021/06/26 05:13:42;;;;;;;23.83;19.08;;;;;;;17.04;66.47;100605.84;5018286;28;20060;-80
2021/06/26 05:16:09;;;;;;;30.40;19.85;;;;;;;17.04;66.64;100593.78;5018195;28;20050;-80
2021/06/26 05:18:36;;;;;;;24.80;19.90;;;;;;;17.13;66.69;100602.09;5018415;28;20061;-80
2021/06/26 05:21:04;;;;;;;25.77;19.13;;;;;;;17.20;66.72;100596.69;5018604;28;20058;-80
2021/06/26 05:23:33;;;;;;;22.13;18.70;;;;;;;17.27;66.68;100601.69;5018178;28;20054;-80
2021/06/26 05:26:03;;;;;;;24.33;19.10;;;;;;;17.33;66.63;100603.91;5018222;28;20060;-80
2021/06/26 05:28:31;;;;;;;23.95;19.35;;;;;;;17.44;66.34;100605.03;5017580;28;20054;-81
2021/06/26 05:30:58;;;;;;;26.10;19.90;;;;;;;17.55;66.36;100596.06;5017885;28;20050;-81
2021/06/26 05:33:26;;;;;;;26.90;19.85;;;;;;;17.62;65.99;100596.28;5017508;28;20050;-80
2021/06/26 05:35:53;;;;;;;22.60;20.20;;;;;;;17.64;65.85;100588.28;5017475;28;20371;-80
2021/06/26 05:38:20;;;;;;;21.40;19.13;;;;;;;17.67;66.05;100610.09;5017102;28;20060;-79
2021/06/26 05:40:49;;;;;;;22.20;19.55;;;;;;;17.76;65.83;100607.94;5016994;28;20058;-81
2021/06/26 05:43:17;;;;;;;22.35;19.92;;;;;;;17.88;65.40;100600.66;5017254;28;20054;-80
2021/06/26 05:45:44;;;;;;;21.98;19.17;;;;;;;18.00;65.10;100598.56;5017287;28;20050;-79
2021/06/26 05:48:12;;;;;;;24.02;19.55;;;;;;;18.13;65.18;100602.13;5017234;28;20050;-79
2021/06/26 05:50:39;;;;;;;23.63;20.33;;;;;;;18.23;64.19;100604.41;5017535;28;20076;-80
2021/06/26 05:53:06;;;;;;;25.50;20.02;;;;;;;18.26;63.79;100609.28;5015354;28;20045;-80
2021/06/26 05:55:34;;;;;;;23.50;20.58;;;;;;;18.46;63.56;100606.59;5016591;28;20053;-80
2021/06/26 05:58:05;;;;;;;24.10;19.77;;;;;;;18.62;62.96;100609.38;5017528;28;20054;-80
2021/06/26 06:00:34;;;;;;;23.35;19.05;;;;;;;18.76;62.72;100608.91;5016976;28;20050;-81
2021/06/26 06:03:02;;;;;;;21.75;18.52;;;;;;;18.90;62.25;100609.28;5017434;28;20483;-81
2021/06/26 06:05:30;;;;;;;21.83;19.53;;;;;;;18.96;61.87;100607.81;5017806;28;20049;-81
2021/06/26 06:07:58;;;;;;;22.23;19.58;;;;;;;19.12;61.49;100604.13;5016807;28;20525;-80
2021/06/26 06:10:27;;;;;;;22.45;19.85;;;;;;;19.19;61.47;100605.09;5015058;28;20052;-79
2021/06/26 06:12:55;;;;;;;;;;;;;;;19.29;61.06;100598.03;5016091;28;20053;-80
2021/06/26 06:15:25;;;;;;;22.58;20.13;;;;;;;19.50;60.59;100596.84;5016094;28;20407;-80
2021/06/26 06:17:53;;;;;;;24.08;19.73;;;;;;;19.60;60.90;100596.25;5017481;28;20060;-79
2021/06/26 06:20:20;;;;;;;22.02;19.17;;;;;;;19.90;60.06;100598.47;5017185;28;20073;-79
2021/06/26 06:22:48;;;;;;;22.92;20.52;;;;;;;20.03;60.25;100594.25;5017517;28;20053;-79
2021/06/26 06:25:15;;;;;;;23.08;20.38;;;;;;;20.25;58.93;100596.28;5018013;28;20054;-80
2021/06/26 06:27:42;;;;;;;22.63;19.85;;;;;;;20.43;58.71;100598.59;5017663;28;20049;-79
2021/06/26 06:30:11;;;;;;;22.73;18.73;;;;;;;20.57;57.50;100596.00;5017201;28;20060;-81
2021/06/26 06:32:40;;;;;;;22.48;20.08;;;;;;;20.70;57.90;100587.34;5006429;28;20105;-79
2021/06/26 06:35:09;;;;;;;23.00;20.58;;;;;;;20.88;57.62;100583.56;4998044;28;20058;-81
2021/06/26 06:37:36;;;;;;;22.77;18.80;;;;;;;21.01;57.35;100578.47;4997575;28;20053;-80
2021/06/26 06:40:04;;;;;;;22.00;19.17;;;;;;;21.17;56.53;100591.66;4997838;28;20499;-80
2021/06/26 06:42:33;;;;;;;21.90;19.52;;;;;;;21.23;56.67;100584.44;4998024;28;20061;-80
2021/06/26 06:45:02;;;;;;;22.15;19.80;;;;;;;21.27;56.68;100597.47;4997884;28;20051;-79
2021/06/26 06:47:29;;;;;;;22.05;19.67;;;;;;;21.24;57.77;100591.75;4998027;28;20054;-79
2021/06/26 06:49:58;;;;;;;21.08;18.38;;;;;;;21.16;57.47;100590.00;4998542;28;20057;-80
2021/06/26 06:52:26;;;;;;;20.38;18.08;;;;;;;21.21;56.95;100595.38;4998521;28;20050;-80
2021/06/26 06:54:53;;;;;;;20.40;18.30;;;;;;;21.25;57.27;100587.69;4997200;28;20511;-80
2021/06/26 06:57:23;;;;;;;21.27;18.33;;;;;;;21.26;57.18;100595.00;4997131;28;20054;-79
2021/06/26 06:59:51;;;;;;;20.00;17.70;;;;;;;21.31;57.48;100591.03;4997443;28;20050;-79
2021/06/26 07:02:18;;;;;;;19.98;17.95;;;;;;;21.36;57.26;100588.66;4995785;28;20058;-80
2021/06/26 07:04:46;;;;;;;19.17;17.13;;;;;;;21.47;56.65;100588.84;4997497;28;20054;-79
2021/06/26 07:07:16;;;;;;;19.27;17.27;;;;;;;21.52;56.72;100591.31;4998153;28;20403;-79
2021/06/26 07:09:43;;;;;;;19.05;17.05;;;;;;;21.56;57.24;100599.88;4986585;28;20050;-79
2021/06/26 07:12:12;;;;;;;17.85;15.95;;;;;;;21.65;56.95;100594.72;4995279;28;20401;-78
2021/06/26 07:14:39;;;;;;;18.85;16.85;;;;;;;21.76;57.16;100594.84;4994921;28;20050;-79
2021/06/26 07:17:06;;;;;;;18.10;16.30;;;;;;;21.83;56.50;100589.25;4992488;28;20054;-80
2021/06/26 07:19:34;;;;;;;17.80;16.05;;;;;;;21.87;55.72;100590.91;4993543;28;20058;-81
2021/06/26 07:22:04;;;;;;;17.13;15.32;;;;;;;21.92;54.76;100586.09;4999700;28;20050;-81
2021/06/26 07:24:32;;;;;;;17.33;15.48;;;;;;;21.95;54.59;100585.31;4990866;28;20055;-81
2021/06/26 07:27:00;;;;;;;16.83;15.13;;;;;;;22.01;54.44;100589.44;4982318;28;20505;-82
2021/06/26 07:29:27;;;;;;;16.90;15.20;;;;;;;22.13;55.43;100591.97;4995973;28;20413;-80
2021/06/26 07:31:55;;;;;;;15.70;14.05;;;;;;;22.15;53.68;100588.75;4996444;28;20057;-81
2021/06/26 07:34:22;;;;;;;16.42;14.63;;;;;;;22.23;54.39;100584.81;4999407;28;20134;-82
2021/06/26 07:36:49;;;;;;;18.48;15.02;;;;;;;22.33;54.00;100584.09;5001887;28;20517;-80
2021/06/26 07:39:17;;;;;;;15.45;13.88;;;;;;;22.52;54.06;100577.34;4999187;28;20057;-80
2021/06/26 07:41:46;;;;;;;15.60;14.00;;;;;;;22.61;53.41;100583.47;5009056;28;20054;-82
2021/06/26 07:44:14;;;;;;;15.75;14.02;;;;;;;22.70;53.30;100583.97;5018150;28;20050;-78
2021/06/26 07:46:41;;;;;;;14.27;12.73;;;;;;;22.87;52.18;100575.97;5017531;28;20061;-81
2021/06/26 07:49:09;;;;;;;15.20;13.70;;;;;;;23.04;52.24;100578.13;5013312;28;20057;-79
2021/06/26 07:51:36;;;;;;;14.45;12.90;;;;;;;23.20;51.86;100577.78;5012475;28;20414;-79
2021/06/26 07:54:07;;;;;;;14.98;13.38;;;;;;;23.33;50.65;100578.28;5007921;28;20507;-78
2021/06/26 07:56:34;;;;;;;15.32;11.88;;;;;;;23.54;50.20;100577.53;5016920;28;20062;-83
2021/06/26 07:59:05;;;;;;;15.48;12.75;;;;;;;23.94;49.91;100571.97;5016080;28;20056;-79
2021/06/26 08:01:34;;;;;;;13.38;11.60;;;;;;;24.92;48.20;100571.56;5015749;28;20503;-80
2021/06/26 08:04:02;;;;;;;12.43;11.13;;;;;;;26.24;44.77;100570.13;5018588;28;20049;-82
2021/06/26 08:06:29;;;;;;;15.65;12.05;;;;;;;27.26;41.93;100573.69;5013865;28;20046;-79
2021/06/26 08:08:56;;;;;;;12.40;11.07;;;;;;;28.17;40.16;100560.56;5015302;28;20057;-79
2021/06/26 08:11:24;;;;;;;12.27;11.07;;;;;;;29.03;38.21;100570.53;5012485;28;20148;-79
2021/06/26 08:13:53;;;;;;;12.02;10.63;;;;;;;29.95;36.34;100557.53;5016290;28;20053;-79
2021/06/26 08:16:21;;;;;;;12.13;10.93;;;;;;;30.82;34.64;100556.97;5014428;28;20058;-78
2021/06/26 08:18:51;;;;;;;11.32;10.23;;;;;;;31.33;34.68;100557.22;5016060;28;20061;-77
2021/06/26 08:21:19;;;;;;;11.15;10.07;;;;;;;31.79;32.88;100554.19;5012320;28;20058;-79
2021/06/26 08:23:51;;;;;;;13.20;10.67;;;;;;;32.00;32.07;100541.19;5014844;28;20054;-78
2021/06/26 08:26:19;;;;;;;11.35;10.25;;;;;;;32.78;31.31;100541.88;5015955;28;20061;-79
2021/06/26 08:28:47;;;;;;;10.60;9.60;;;;;;;33.41;30.70;100540.81;5012386;28;20046;-80
2021/06/26 08:31:16;;;;;;;10.63;9.52;;;;;;;34.24;28.90;100546.19;5004738;28;20061;-83
2021/06/26 08:33:44;;;;;;;10.48;9.43;;;;;;;34.96;27.74;100535.22;5013622;28;20053;-83
2021/06/26 08:36:11;;;;;;;;;;;;;;;35.56;26.47;100531.59;5022215;28;20054;-81
2021/06/26 08:38:39;;;;;;;10.93;9.77;;;;;;;35.98;25.57;100530.81;5021272;28;19929;-82
2021/06/26 08:41:10;;;;;;;9.70;8.75;;;;;;;36.33;25.15;100533.25;5021247;28;20050;-79
2021/06/26 08:43:37;;;;;;;13.68;9.77;;;;;;;36.05;25.20;100531.75;5023172;28;20061;-82
2021/06/26 08:46:05;;;;;;;10.50;9.55;;;;;;;35.05;26.67;100537.28;5021159;28;20058;-83
2021/06/26 08:48:34;;;;;;;12.98;9.40;;;;;;;33.85;27.88;100531.25;5020755;28;20065;-83
2021/06/26 08:51:03;;;;;;;9.63;8.73;;;;;;;33.44;28.45;100539.84;5020591;28;20050;-82
2021/06/26 08:53:30;;;;;;;8.65;7.88;;;;;;;32.76;27.79;100533.72;5019182;28;20057;-83
2021/06/26 08:55:58;;;;;;;8.43;7.68;;;;;;;32.69;27.78;100528.19;5021175;28;20053;-82
2021/06/26 08:58:25;;;;;;;7.82;7.03;;;;;;;34.40;26.53;100534.34;5020984;28;20053;-82
2021/06/26 09:00:53;;;;;;;8.60;7.90;;;;;;;34.76;25.97;100530.72;5020292;28;20061;-82
2021/06/26 09:03:23;;;;;;;8.35;7.53;;;;;;;34.35;26.61;100529.19;5020564;28;20053;-83
2021/06/26 09:05:51;;;;;;;8.80;7.93;;;;;;;34.06;26.50;100536.16;5021804;28;20053;-83
2021/06/26 09:08:21;;;;;;;8.57;7.78;;;;;;;34.58;25.58;100527.78;5019883;28;20054;-83
2021/06/26 09:10:50;;;;;;;8.23;7.53;;;;;;;36.10;24.03;100533.97;5012862;28;20053;-83
2021/06/26 09:13:22;;;;;;;7.70;7.10;;;;;;;37.75;21.73;100531.03;5020163;28;20050;-83
2021/06/26 09:15:50;;;;;;;7.53;6.82;;;;;;;38.93;20.05;100537.75;5000898;28;20050;-83
2021/06/26 09:18:19;;;;;;;7.15;6.45;;;;;;;39.13;19.05;100539.88;5014889;28;20065;-83
2021/06/26 09:20:51;;;;;;;8.05;7.25;;;;;;;38.60;20.50;100535.22;5018334;28;20076;-83
2021/06/26 09:23:27;;;;;;;8.85;6.80;;;;;;;38.08;20.97;100539.53;5019986;28;20060;-83
2021/06/26 09:26:07;;;;;;;6.85;6.25;;;;;;;37.38;20.20;100540.16;5001395;28;20054;-83
2021/06/26 09:28:35;;;;;;;7.13;6.53;;;;;;;37.67;20.52;100541.47;5002776;28;20054;-82
2021/06/26 09:31:02;;;;;;;7.03;6.40;;;;;;;36.14;21.19;100543.31;5019477;28;20057;-83
2021/06/26 09:33:30;;;;;;;7.47;6.50;;;;;;;35.31;22.30;100540.69;5015341;28;20057;-82
2021/06/26 09:36:03;;;;;;;7.70;6.13;;;;;;;34.50;22.46;100543.81;5021814;28;20054;-82
2021/06/26 09:38:33;;;;;;;6.50;5.90;;;;;;;33.90;24.17;100543.00;5012880;28;20418;-82
2021/06/26 09:41:13;;;;;;;6.72;6.13;;;;;;;33.33;24.77;100553.91;5021679;28;20050;-80
2021/06/26 09:43:41;;;;;;;6.43;5.75;;;;;;;33.00;25.95;100545.59;5014874;28;20049;-80
2021/06/26 09:46:14;;;;;;;6.90;5.80;;;;;;;32.69;26.64;100542.59;5018103;28;20414;-82
2021/06/26 09:48:53;;;;;;;6.93;6.15;;;;;;;32.27;27.16;100539.91;5017464;28;20053;-81
2021/06/26 09:51:23;;;;;;;6.95;5.90;;;;;;;32.30;27.33;100539.78;5017605;28;20057;-81
2021/06/26 09:54:00;;;;;;;7.30;6.32;;;;;;;34.05;24.94;100539.53;5017746;28;20065;-81
2021/06/26 09:56:42;;;;;;;8.10;6.43;;;;;;;36.20;22.41;100529.75;5017514;28;20050;-82
2021/06/26 09:59:13;;;;;;;6.30;5.70;;;;;;;38.40;18.59;100530.97;5016657;28;20054;-82
2021/06/26 10:01:44;;;;;;;6.07;5.50;;;;;;;40.09;17.53;100529.06;5017477;28;20057;-83
2021/06/26 10:04:13;;;;;;;5.97;5.47;;;;;;;41.91;16.45;100524.06;5017718;28;20483;-82
2021/06/26 10:06:42;;;;;;;5.75;5.25;;;;;;;43.18;14.12;100521.78;5016644;28;20050;-82
2021/06/26 10:09:13;;;;;;;6.32;5.72;;;;;;;44.50;13.00;100517.94;5017037;28;20049;-83
2021/06/26 10:11:41;;;;;;;5.63;4.97;;;;;;;45.86;12.24;100522.63;5017075;28;20049;-83
2021/06/26 10:14:10;;;;;;;5.47;4.97;;;;;;;46.93;10.69;100509.47;5016632;28;20061;-81
2021/06/26 10:16:40;;;;;;;4.68;4.28;;;;;;;46.32;10.42;100521.22;5017204;28;20057;-81
2021/06/26 10:19:10;;;;;;;5.10;4.65;;;;;;;46.32;11.31;100511.59;5018183;28;20054;-81
2021/06/26 10:21:37;;;;;;;5.13;4.45;;;;;;;46.40;9.95;100508.78;5017727;28;20046;-81
2021/06/26 10:24:13;;;;;;;4.68;4.20;;;;;;;44.92;11.78;100516.34;5017398;28;20053;-81
2021/06/26 10:26:43;;;;;;;5.82;4.55;;;;;;;43.76;12.64;100512.81;5017955;28;20054;-81
2021/06/26 10:29:10;;;;;;;5.47;4.40;;;;;;;42.49;14.04;100525.59;5019007;28;20049;-82
2021/06/26 10:31:41;;;;;;;5.60;4.93;;;;;;;41.69;14.07;100515.34;5017414;28;20053;-81
2021/06/26 10:34:14;;;;;;;4.55;4.15;;;;;;;43.02;13.88;100513.91;5017567;28;20046;-81
2021/06/26 10:36:46;;;;;;;5.35;4.45;;;;;;;41.26;15.55;100512.63;5017278;28;20065;-81
2021/06/26 10:39:20;;;;;;;4.82;4.22;;;;;;;40.40;15.48;100515.75;5016672;28;20077;-80
2021/06/26 10:41:58;;;;;;;5.97;4.85;;;;;;;40.00;15.38;100521.31;5016053;28;20049;-80
2021/06/26 10:44:25;;;;;;;;;;;;;;;38.76;17.10;100525.91;5017830;28;20049;-81
2021/06/26 10:46:53;;;;;;;5.25;4.78;;;;;;;38.12;18.17;100522.66;5016728;28;19921;-80
2021/06/26 10:49:28;;;;;;;5.37;4.77;;;;;;;37.64;18.01;100525.03;5015485;28;20052;-80
2021/06/26 10:52:07;;;;;;;5.45;4.72;;;;;;;37.02;19.12;100518.84;5014088;28;20060;-80
2021/06/26 10:54:36;;;;;;;5.32;4.82;;;;;;;36.64;19.42;100511.75;5015186;28;20514;-80
2021/06/26 10:57:05;;;;;;;4.18;3.80;;;;;;;36.22;20.16;100526.38;5015717;28;20049;-80
2021/06/26 10:59:33;;;;;;;5.88;4.90;;;;;;;35.88;20.37;100513.97;5015081;28;20058;-80
2021/06/26 11:02:03;;;;;;;5.55;4.65;;;;;;;35.30;20.98;100519.59;5016396;28;20045;-80
2021/06/26 11:04:32;;;;;;;5.18;4.65;;;;;;;35.21;21.06;100525.41;5015951;28;20056;-80
2021/06/26 11:07:05;;;;;;;6.68;4.70;;;;;;;34.63;21.01;100521.38;5016639;28;20056;-80
2021/06/26 11:09:38;;;;;;;4.88;4.47;;;;;;;34.45;21.68;100515.56;5016413;28;20385;-80
2021/06/26 11:12:12;;;;;;;5.82;4.75;;;;;;;34.23;21.68;100516.47;5018363;28;20046;-80
2021/06/26 11:14:49;;;;;;;5.43;4.70;;;;;;;34.11;22.01;100509.50;5015412;28;20053;-81
2021/06/26 11:17:17;;;;;;;5.10;4.60;;;;;;;34.01;21.38;100518.63;5016466;28;20057;-81
2021/06/26 11:19:46;;;;;;;6.57;4.97;;;;;;;33.87;21.84;100520.00;5015605;28;20050;-81